DOVO2: Cimarron River, Dover, OK

Data processed at Tue May 21 2019 23:50


All information presented herein is the property of the government of the United States of America and may be revised or deleted at any time without prior notice.
Dissemination of this information without the expressed written consent of the Public Affairs Office, Tulsa District U.S. Army Corps of Engineers is strictly prohibited.
These data are gathered electronically and, as presented, have not undergone any form of quality control. These data are not guaranteed to be valid or correct.
Go to home page.
Go to station list.
Go to home page.

Upstream stations:

Downstream station:
Previous Day
Next Day
Current Day
    
SHEF ID:       DOVO2     Cimarron River near Dover, OK
STATION TYPE:  
Regulating: Stage =    17.00, Flow =     9323

               PRECIP     STAGE  RIV-FLOW  BAT-LOAD
                   in        ft       cfs      volt
              Ccp-Rev   Ccp-Rev   Ccp-Rev   Ccp-Rev
(US/Central)
05/21 00:00      0.02     13.85      2951     12.49
05/21 01:00      0.07     14.67      4153     12.49
05/21 02:00      0.09     15.55      5754     12.49
05/21 03:00      0.48     16.54      8038     12.41
05/21 04:00      0.33     17.46     10801     12.41
05/21 05:00      0.13     18.23     13747     12.41
05/21 06:00      0.19     18.85     16741     12.41
05/21 07:00      0.17     19.33     19482     12.41
05/21 08:00      0.00     19.77     22322     12.49
05/21 09:00      0.01     20.10     24671     12.65
05/21 10:00      0.06     20.34     26545     12.81
05/21 11:00      0.00     20.55     28299     13.05
05/21 12:00      0.01     20.71     29773     13.37
05/21 13:00      0.00     20.86     31206     13.60
05/21 14:00      0.00     20.99     32490     13.53
05/21 15:00      0.00     21.03     32907     13.44
05/21 16:00      0.00     21.08     33441     13.37
05/21 17:00      0.00     21.15     34200     13.29
05/21 18:00      0.00     21.18     34529     13.29
05/21 19:00      0.00     21.27     35531     13.29
05/21 20:00      0.00     21.30     35870     13.13
05/21 21:00      0.00     21.41     37133     12.81
05/21 22:00      0.00     21.50     38192     12.65
05/21 23:00      0.00     21.64     39885     12.65